createdAt,value
2023-03-02T00:00:17.991Z,6.28
2023-03-02T00:05:41.391Z,7.80
2023-03-02T00:10:43.544Z,8.69
2023-03-02T00:15:45.357Z,8.65
2023-03-02T00:20:47.412Z,6.92
2023-03-02T00:25:49.185Z,5.81
2023-03-02T00:30:50.969Z,5.03
2023-03-02T00:35:52.845Z,4.43
2023-03-02T00:40:55.941Z,4.00
2023-03-02T00:45:58.631Z,3.68
2023-03-02T00:51:01.165Z,4.21
2023-03-02T00:56:04.557Z,6.59
2023-03-02T01:01:10.450Z,8.04
2023-03-02T01:06:19.184Z,8.81
2023-03-02T01:11:22.065Z,8.45
2023-03-02T01:16:23.787Z,6.42
2023-03-02T01:21:25.805Z,5.18
2023-03-02T01:26:27.796Z,4.38
2023-03-02T01:31:30.830Z,3.80
2023-03-02T01:36:33.300Z,3.38
2023-03-02T01:41:35.266Z,3.93
2023-03-02T01:46:37.040Z,6.40
2023-03-02T01:51:46.523Z,7.94
2023-03-02T01:56:55.646Z,8.83
2023-03-02T02:02:03.249Z,8.47
2023-03-02T02:07:08.834Z,6.47
2023-03-02T02:12:20.730Z,5.19
2023-03-02T02:17:22.520Z,4.33
2023-03-02T02:23:27.996Z,3.71
2023-03-02T02:29:07.446Z,3.08
2023-03-02T02:34:22.004Z,2.64
2023-03-02T02:39:32.386Z,2.29
2023-03-02T02:44:34.172Z,2.87
2023-03-02T02:49:39.995Z,5.28
2023-03-02T02:54:45.795Z,6.89
2023-03-02T02:59:52.904Z,7.91
2023-03-02T03:05:02.027Z,7.63
2023-03-02T03:10:48.680Z,5.60
2023-03-02T03:15:50.672Z,4.17
2023-03-02T03:20:52.327Z,3.31
2023-03-02T03:25:53.992Z,2.59
2023-03-02T03:30:55.852Z,2.01
2023-03-02T03:35:57.803Z,1.56
2023-03-02T03:40:59.532Z,2.05
2023-03-02T03:46:01.202Z,4.49
2023-03-02T03:51:03.170Z,6.20
2023-03-02T03:56:06.177Z,7.31
2023-03-02T04:01:08.156Z,8.08
2023-03-02T04:06:18.529Z,7.33
2023-03-02T04:11:20.200Z,5.27
2023-03-02T04:16:22.093Z,3.97
2023-03-02T04:21:24.468Z,3.09
2023-03-02T04:26:26.449Z,2.46
2023-03-02T04:31:28.484Z,1.97
2023-03-02T04:36:34.419Z,1.60
2023-03-02T04:41:36.618Z,2.27
2023-03-02T04:46:39.661Z,4.82
2023-03-02T04:51:45.203Z,6.50
2023-03-02T04:56:48.185Z,7.49
2023-03-02T05:01:50.273Z,8.21
2023-03-02T05:06:52.199Z,7.89
2023-03-02T05:11:55.754Z,5.92
2023-03-02T05:16:57.936Z,4.63
2023-03-02T05:21:59.713Z,3.72
2023-03-02T05:27:01.514Z,3.02
2023-03-02T05:32:03.419Z,2.48
2023-03-02T05:37:05.239Z,2.07
2023-03-02T05:42:06.915Z,2.61
2023-03-02T05:47:08.755Z,5.04
2023-03-02T05:52:10.664Z,6.43
2023-03-02T05:57:12.334Z,7.30
2023-03-02T06:02:14.136Z,8.05
2023-03-02T06:07:16.036Z,8.36
2023-03-02T06:12:17.780Z,6.70
2023-03-02T06:17:19.650Z,4.62
2023-03-02T06:22:21.749Z,3.40
2023-03-02T06:27:23.602Z,2.67
2023-03-02T06:32:25.433Z,3.02
2023-03-02T06:37:29.605Z,5.34
2023-03-02T06:42:31.307Z,6.82
2023-03-02T06:47:33.380Z,7.79
2023-03-02T06:52:35.278Z,8.45
2023-03-02T06:57:37.664Z,7.95
2023-03-02T07:02:39.610Z,5.60
2023-03-02T07:07:41.492Z,4.07
2023-03-02T07:12:45.648Z,4.13
2023-03-02T07:17:48.141Z,6.14
2023-03-02T07:22:50.297Z,7.15
2023-03-02T07:27:52.174Z,7.63
2023-03-02T07:32:54.058Z,7.91
2023-03-02T07:37:55.944Z,6.15
2023-03-02T07:42:57.709Z,4.50
2023-03-02T07:47:59.687Z,3.53
2023-03-02T07:53:01.594Z,4.36
2023-03-02T07:58:03.537Z,6.30
2023-03-02T08:03:05.515Z,7.18
2023-03-02T08:08:07.500Z,7.14
2023-03-02T08:13:09.289Z,5.33
2023-03-02T08:18:11.174Z,4.11
2023-03-02T08:23:12.826Z,4.10
2023-03-02T08:28:14.814Z,6.29
2023-03-02T08:33:16.687Z,7.19
2023-03-02T08:38:18.457Z,7.86
2023-03-02T08:43:23.039Z,6.54
2023-03-02T08:48:26.572Z,4.69
2023-03-02T08:53:32.811Z,4.60
2023-03-02T08:58:34.671Z,6.42
2023-03-02T09:03:36.347Z,7.82
2023-03-02T09:08:39.350Z,7.95
2023-03-02T09:13:41.529Z,6.18
2023-03-02T09:18:43.401Z,4.76
2023-03-02T09:23:45.790Z,5.39
2023-03-02T09:28:47.775Z,7.49
2023-03-02T09:33:49.460Z,8.72
2023-03-02T09:38:52.554Z,8.45
2023-03-02T09:44:32.945Z,6.32
2023-03-02T09:50:05.986Z,4.72
2023-03-02T09:55:29.834Z,4.38
2023-03-02T10:00:36.804Z,6.58
2023-03-02T10:05:43.523Z,7.96
2023-03-02T10:11:06.400Z,7.31
2023-03-02T10:16:41.835Z,5.56
2023-03-02T10:21:55.929Z,5.30
2023-03-02T10:27:12.964Z,7.54
2023-03-02T10:32:51.608Z,7.93
2023-03-02T10:38:16.720Z,6.00
2023-03-02T10:43:35.487Z,5.00
2023-03-02T10:48:49.410Z,4.51
2023-03-02T10:54:10.388Z,4.26
2023-03-02T10:59:45.540Z,5.23
2023-03-02T11:04:48.082Z,8.06
2023-03-02T11:10:16.934Z,8.61
2023-03-02T11:15:28.056Z,7.00
2023-03-02T11:20:37.248Z,6.15
2023-03-02T11:25:47.926Z,7.30
2023-03-02T11:30:53.231Z,7.61
2023-03-02T11:36:24.143Z,6.62
2023-03-02T11:41:36.091Z,6.41
2023-03-02T11:46:39.121Z,8.37
2023-03-02T11:51:58.798Z,7.99
2023-03-02T11:57:01.317Z,7.17
2023-03-02T12:02:04.112Z,6.72
2023-03-02T12:07:26.675Z,6.48
2023-03-02T12:12:36.439Z,6.32
2023-03-02T12:17:39.306Z,8.02
2023-03-02T12:22:41.805Z,9.29
2023-03-02T12:27:44.035Z,8.05
2023-03-02T12:33:10.242Z,7.41
2023-03-02T12:38:36.508Z,7.04
2023-03-02T12:44:02.352Z,6.97
2023-03-02T12:49:10.916Z,6.87
2023-03-02T12:54:18.019Z,6.82
2023-03-02T12:59:28.409Z,7.43
2023-03-02T13:04:30.160Z,10.12
2023-03-02T13:09:32.312Z,9.99
2023-03-02T13:14:34.376Z,8.66
2023-03-02T13:19:37.074Z,8.14
2023-03-02T13:24:58.613Z,7.81
2023-03-02T13:30:26.225Z,7.60
2023-03-02T13:35:32.454Z,7.54
2023-03-02T13:40:42.173Z,7.59
2023-03-02T13:45:56.959Z,7.65
2023-03-02T13:51:20.504Z,7.70
2023-03-02T13:56:40.002Z,7.73
2023-03-02T14:01:43.537Z,7.82
2023-03-02T14:06:46.109Z,7.94
2023-03-02T14:11:55.094Z,8.14
2023-03-02T14:16:57.020Z,8.41
2023-03-02T14:21:58.787Z,8.49
2023-03-02T14:27:00.567Z,8.56
2023-03-02T14:32:04.148Z,8.47
2023-03-02T14:37:11.974Z,8.31
2023-03-02T14:42:19.770Z,8.31
2023-03-02T14:47:21.647Z,8.15
2023-03-02T14:52:44.980Z,7.94
2023-03-02T14:57:56.909Z,7.67
2023-03-02T15:02:59.176Z,7.45
2023-03-02T15:08:01.070Z,7.27
2023-03-02T15:13:02.933Z,7.12
2023-03-02T15:18:05.137Z,7.02
2023-03-02T15:23:07.505Z,6.99
2023-03-02T15:28:10.225Z,6.95
2023-03-02T15:33:12.187Z,6.93
2023-03-02T15:38:13.954Z,6.85
2023-03-02T15:43:15.670Z,6.77
2023-03-02T15:48:17.525Z,6.59
2023-03-02T15:53:19.249Z,6.85
2023-03-02T15:58:22.091Z,9.12
2023-03-02T16:03:24.365Z,10.61
2023-03-02T16:08:26.975Z,10.64
2023-03-02T16:13:30.173Z,9.01
2023-03-02T16:18:32.769Z,7.94
2023-03-02T16:23:34.549Z,7.11
2023-03-02T16:28:37.039Z,6.48
2023-03-02T16:33:40.912Z,6.07
2023-03-02T16:38:42.832Z,5.78
2023-03-02T16:43:54.648Z,5.47
2023-03-02T16:48:57.878Z,5.17
2023-03-02T16:54:00.773Z,4.91
2023-03-02T16:59:02.656Z,5.50
2023-03-02T17:04:05.932Z,7.92
2023-03-02T17:09:07.929Z,9.48
2023-03-02T17:14:10.831Z,9.62
2023-03-02T17:19:12.930Z,7.89
2023-03-02T17:24:14.783Z,6.74
2023-03-02T17:29:16.458Z,5.95
2023-03-02T17:34:18.255Z,5.34
2023-03-02T17:39:20.006Z,4.85
2023-03-02T17:44:27.375Z,4.44
2023-03-02T17:49:30.524Z,4.07
2023-03-02T17:54:32.517Z,3.76
2023-03-02T17:59:34.582Z,4.32
2023-03-02T18:04:36.273Z,6.75
2023-03-02T18:09:38.442Z,8.28
2023-03-02T18:14:42.276Z,9.21
2023-03-02T18:19:45.188Z,8.90
2023-03-02T18:24:47.351Z,7.00
2023-03-02T18:29:49.325Z,5.72
2023-03-02T18:34:51.309Z,4.77
2023-03-02T18:39:53.195Z,4.06
2023-03-02T18:44:55.058Z,3.45
2023-03-02T18:49:58.084Z,2.96
2023-03-02T18:54:59.878Z,2.56
2023-03-02T19:00:10.125Z,3.11
2023-03-02T19:05:12.095Z,5.62
2023-03-02T19:10:15.717Z,7.20
2023-03-02T19:15:17.703Z,8.15
2023-03-02T19:20:20.911Z,7.91
2023-03-02T19:25:23.910Z,5.97
2023-03-02T19:30:27.014Z,4.68
2023-03-02T19:35:30.054Z,3.76
2023-03-02T19:40:34.050Z,3.06
2023-03-02T19:45:37.196Z,2.55
2023-03-02T19:50:39.966Z,2.15
2023-03-02T19:55:42.345Z,1.79
2023-03-02T20:00:46.486Z,2.35
2023-03-02T20:05:48.654Z,4.78
2023-03-02T20:10:51.151Z,6.34
2023-03-02T20:15:53.340Z,7.36
2023-03-02T20:20:55.516Z,7.17
2023-03-02T20:25:57.701Z,5.19
2023-03-02T20:31:08.358Z,3.89
2023-03-02T20:36:14.079Z,3.04
2023-03-02T20:41:17.976Z,2.36
2023-03-02T20:46:28.655Z,1.84
2023-03-02T20:51:30.945Z,1.40
2023-03-02T20:56:33.542Z,1.81
2023-03-02T21:01:35.757Z,4.09
2023-03-02T21:06:38.325Z,5.52
2023-03-02T21:11:41.036Z,6.34
2023-03-02T21:16:45.718Z,7.01
2023-03-02T21:21:47.531Z,6.65
2023-03-02T21:26:53.049Z,4.63
2023-03-02T21:31:55.070Z,3.31
2023-03-02T21:36:57.360Z,2.38
2023-03-02T21:41:59.758Z,1.68
2023-03-02T21:47:01.537Z,1.14
2023-03-02T21:52:03.731Z,0.67
2023-03-02T21:57:07.737Z,0.28
2023-03-02T22:02:11.561Z,1.05
2023-03-02T22:07:13.339Z,4.20
2023-03-02T22:12:16.552Z,5.45
2023-03-02T22:17:22.438Z,6.41
2023-03-02T22:22:29.460Z,5.98
2023-03-02T22:27:34.182Z,3.83
2023-03-02T22:32:38.261Z,2.49
2023-03-02T22:37:40.069Z,1.59
2023-03-02T22:42:41.951Z,0.93
2023-03-02T22:47:48.745Z,0.41
2023-03-02T22:52:52.363Z,-0.01
2023-03-02T22:57:54.316Z,-0.34
2023-03-02T23:02:57.047Z,0.32
2023-03-02T23:08:20.113Z,3.00
2023-03-02T23:13:27.937Z,4.82
2023-03-02T23:18:32.577Z,5.84
2023-03-02T23:23:34.563Z,5.59
2023-03-02T23:28:36.325Z,3.46
2023-03-02T23:33:38.313Z,2.02
2023-03-02T23:38:40.703Z,1.09
2023-03-02T23:43:42.775Z,0.43
2023-03-02T23:48:44.576Z,-0.06
2023-03-02T23:53:46.732Z,-0.46
2023-03-02T23:58:48.820Z,-0.78
